sensor_id;sensor_type;location;lat;lon;timestamp;pressure;altitude;pressure_sealevel;temperature
16956;BMP180;8594;52.052;8.354;2022-11-20T00:00:50;100251.00;;;2.40
16956;BMP180;8594;52.052;8.354;2022-11-20T00:03:17;100243.00;;;2.00
16956;BMP180;8594;52.052;8.354;2022-11-20T00:05:44;100247.00;;;1.70
16956;BMP180;8594;52.052;8.354;2022-11-20T00:08:12;100251.00;;;2.30
16956;BMP180;8594;52.052;8.354;2022-11-20T00:10:39;100230.00;;;2.00
16956;BMP180;8594;52.052;8.354;2022-11-20T00:13:07;100235.00;;;2.10
16956;BMP180;8594;52.052;8.354;2022-11-20T00:15:35;100223.00;;;1.80
16956;BMP180;8594;52.052;8.354;2022-11-20T00:18:03;100236.00;;;1.30
16956;BMP180;8594;52.052;8.354;2022-11-20T00:20:30;100220.00;;;1.20
16956;BMP180;8594;52.052;8.354;2022-11-20T00:22:56;100224.00;;;2.00
16956;BMP180;8594;52.052;8.354;2022-11-20T00:25:23;100231.00;;;2.50
16956;BMP180;8594;52.052;8.354;2022-11-20T00:27:50;100220.00;;;2.60
16956;BMP180;8594;52.052;8.354;2022-11-20T00:30:18;100210.00;;;2.70
16956;BMP180;8594;52.052;8.354;2022-11-20T00:32:46;100220.00;;;2.30
16956;BMP180;8594;52.052;8.354;2022-11-20T00:35:13;100223.00;;;2.10
16956;BMP180;8594;52.052;8.354;2022-11-20T00:37:40;100210.00;;;2.00
16956;BMP180;8594;52.052;8.354;2022-11-20T00:40:09;100211.00;;;2.20
16956;BMP180;8594;52.052;8.354;2022-11-20T00:42:36;100215.00;;;2.10
16956;BMP180;8594;52.052;8.354;2022-11-20T00:45:03;100222.00;;;1.90
16956;BMP180;8594;52.052;8.354;2022-11-20T00:47:30;100228.00;;;2.10
16956;BMP180;8594;52.052;8.354;2022-11-20T00:49:58;100221.00;;;2.20
16956;BMP180;8594;52.052;8.354;2022-11-20T00:52:25;100219.00;;;2.00
16956;BMP180;8594;52.052;8.354;2022-11-20T00:54:52;100219.00;;;1.70
16956;BMP180;8594;52.052;8.354;2022-11-20T00:57:19;100225.00;;;1.90
16956;BMP180;8594;52.052;8.354;2022-11-20T00:59:46;100223.00;;;2.10
16956;BMP180;8594;52.052;8.354;2022-11-20T01:02:13;100218.00;;;1.70
16956;BMP180;8594;52.052;8.354;2022-11-20T01:04:42;100217.00;;;1.60
16956;BMP180;8594;52.052;8.354;2022-11-20T01:07:10;100217.00;;;1.50
16956;BMP180;8594;52.052;8.354;2022-11-20T01:09:37;100221.00;;;1.30
16956;BMP180;8594;52.052;8.354;2022-11-20T01:12:04;100224.00;;;0.70
16956;BMP180;8594;52.052;8.354;2022-11-20T01:14:31;100228.00;;;1.30
16956;BMP180;8594;52.052;8.354;2022-11-20T01:16:58;100215.00;;;0.90
16956;BMP180;8594;52.052;8.354;2022-11-20T01:19:25;100218.00;;;1.00
16956;BMP180;8594;52.052;8.354;2022-11-20T01:21:54;100224.00;;;1.00
16956;BMP180;8594;52.052;8.354;2022-11-20T01:24:22;100216.00;;;1.10
16956;BMP180;8594;52.052;8.354;2022-11-20T01:26:50;100222.00;;;1.50
16956;BMP180;8594;52.052;8.354;2022-11-20T01:29:21;100223.00;;;1.70
16956;BMP180;8594;52.052;8.354;2022-11-20T01:31:48;100216.00;;;1.60
16956;BMP180;8594;52.052;8.354;2022-11-20T01:34:19;100217.00;;;1.40
16956;BMP180;8594;52.052;8.354;2022-11-20T01:36:48;100217.00;;;1.00
16956;BMP180;8594;52.052;8.354;2022-11-20T01:39:17;100222.00;;;1.20
16956;BMP180;8594;52.052;8.354;2022-11-20T01:41:47;100208.00;;;1.20
16956;BMP180;8594;52.052;8.354;2022-11-20T01:44:54;100213.00;;;1.90
16956;BMP180;8594;52.052;8.354;2022-11-20T01:47:34;100209.00;;;1.50
16956;BMP180;8594;52.052;8.354;2022-11-20T01:50:11;100207.00;;;0.80
16956;BMP180;8594;52.052;8.354;2022-11-20T01:52:45;100205.00;;;0.80
16956;BMP180;8594;52.052;8.354;2022-11-20T01:55:19;100207.00;;;0.70
16956;BMP180;8594;52.052;8.354;2022-11-20T01:57:49;100204.00;;;1.20
16956;BMP180;8594;52.052;8.354;2022-11-20T02:00:19;100211.00;;;0.90
16956;BMP180;8594;52.052;8.354;2022-11-20T02:02:52;100203.00;;;1.00
16956;BMP180;8594;52.052;8.354;2022-11-20T02:05:31;100187.00;;;0.50
16956;BMP180;8594;52.052;8.354;2022-11-20T02:08:00;100195.00;;;-0.10
16956;BMP180;8594;52.052;8.354;2022-11-20T02:10:30;100195.00;;;0.10
16956;BMP180;8594;52.052;8.354;2022-11-20T02:12:59;100199.00;;;0.30
16956;BMP180;8594;52.052;8.354;2022-11-20T02:15:43;100193.00;;;0.60
16956;BMP180;8594;52.052;8.354;2022-11-20T02:18:14;100188.00;;;0.00
16956;BMP180;8594;52.052;8.354;2022-11-20T02:20:45;100187.00;;;0.40
16956;BMP180;8594;52.052;8.354;2022-11-20T02:23:21;100188.00;;;1.00
16956;BMP180;8594;52.052;8.354;2022-11-20T02:25:51;100185.00;;;1.30
16956;BMP180;8594;52.052;8.354;2022-11-20T02:28:19;100186.00;;;0.90
16956;BMP180;8594;52.052;8.354;2022-11-20T02:30:47;100185.00;;;0.80
16956;BMP180;8594;52.052;8.354;2022-11-20T02:33:13;100187.00;;;1.00
16956;BMP180;8594;52.052;8.354;2022-11-20T02:35:44;100184.00;;;0.70
16956;BMP180;8594;52.052;8.354;2022-11-20T02:38:12;100185.00;;;1.10
16956;BMP180;8594;52.052;8.354;2022-11-20T02:40:40;100181.00;;;1.10
16956;BMP180;8594;52.052;8.354;2022-11-20T02:43:11;100174.00;;;1.10
16956;BMP180;8594;52.052;8.354;2022-11-20T02:45:38;100179.00;;;0.70
16956;BMP180;8594;52.052;8.354;2022-11-20T02:48:06;100170.00;;;0.80
16956;BMP180;8594;52.052;8.354;2022-11-20T02:50:38;100170.00;;;0.20
16956;BMP180;8594;52.052;8.354;2022-11-20T02:53:06;100164.00;;;-0.40
16956;BMP180;8594;52.052;8.354;2022-11-20T02:55:33;100155.00;;;0.10
16956;BMP180;8594;52.052;8.354;2022-11-20T02:58:00;100152.00;;;-0.10
16956;BMP180;8594;52.052;8.354;2022-11-20T03:00:28;100151.00;;;0.60
16956;BMP180;8594;52.052;8.354;2022-11-20T03:02:55;100149.00;;;1.00
16956;BMP180;8594;52.052;8.354;2022-11-20T03:05:22;100145.00;;;0.70
16956;BMP180;8594;52.052;8.354;2022-11-20T03:07:49;100156.00;;;0.70
16956;BMP180;8594;52.052;8.354;2022-11-20T03:10:16;100150.00;;;0.60
16956;BMP180;8594;52.052;8.354;2022-11-20T03:12:43;100152.00;;;0.40
16956;BMP180;8594;52.052;8.354;2022-11-20T03:15:11;100147.00;;;0.30
16956;BMP180;8594;52.052;8.354;2022-11-20T03:17:39;100154.00;;;0.80
16956;BMP180;8594;52.052;8.354;2022-11-20T03:20:08;100149.00;;;0.70
16956;BMP180;8594;52.052;8.354;2022-11-20T03:22:35;100147.00;;;0.80
16956;BMP180;8594;52.052;8.354;2022-11-20T03:25:02;100147.00;;;0.80
16956;BMP180;8594;52.052;8.354;2022-11-20T03:27:33;100153.00;;;0.60
16956;BMP180;8594;52.052;8.354;2022-11-20T03:30:00;100139.00;;;1.40
16956;BMP180;8594;52.052;8.354;2022-11-20T03:32:27;100145.00;;;1.20
16956;BMP180;8594;52.052;8.354;2022-11-20T03:34:55;100147.00;;;0.70
16956;BMP180;8594;52.052;8.354;2022-11-20T03:37:22;100144.00;;;0.70
16956;BMP180;8594;52.052;8.354;2022-11-20T03:39:49;100154.00;;;0.90
16956;BMP180;8594;52.052;8.354;2022-11-20T03:42:16;100144.00;;;0.10
16956;BMP180;8594;52.052;8.354;2022-11-20T03:45:01;100153.00;;;0.40
16956;BMP180;8594;52.052;8.354;2022-11-20T03:47:28;100149.00;;;0.40
16956;BMP180;8594;52.052;8.354;2022-11-20T03:49:56;100150.00;;;0.50
16956;BMP180;8594;52.052;8.354;2022-11-20T03:52:23;100146.00;;;0.50
16956;BMP180;8594;52.052;8.354;2022-11-20T03:54:50;100152.00;;;0.40
16956;BMP180;8594;52.052;8.354;2022-11-20T03:57:16;100141.00;;;-0.10
16956;BMP180;8594;52.052;8.354;2022-11-20T03:59:43;100144.00;;;-0.40
16956;BMP180;8594;52.052;8.354;2022-11-20T04:02:10;100142.00;;;-0.90
16956;BMP180;8594;52.052;8.354;2022-11-20T04:04:37;100145.00;;;0.10
16956;BMP180;8594;52.052;8.354;2022-11-20T04:07:05;100142.00;;;0.30
16956;BMP180;8594;52.052;8.354;2022-11-20T04:09:32;100138.00;;;0.50
16956;BMP180;8594;52.052;8.354;2022-11-20T04:11:59;100141.00;;;0.80
16956;BMP180;8594;52.052;8.354;2022-11-20T04:14:26;100147.00;;;1.10
16956;BMP180;8594;52.052;8.354;2022-11-20T04:16:53;100143.00;;;0.40
16956;BMP180;8594;52.052;8.354;2022-11-20T04:19:20;100148.00;;;-0.20
16956;BMP180;8594;52.052;8.354;2022-11-20T04:21:47;100146.00;;;-0.70
16956;BMP180;8594;52.052;8.354;2022-11-20T04:24:15;100141.00;;;-0.70
16956;BMP180;8594;52.052;8.354;2022-11-20T04:26:42;100139.00;;;-0.60
16956;BMP180;8594;52.052;8.354;2022-11-20T04:29:11;100139.00;;;-0.40
16956;BMP180;8594;52.052;8.354;2022-11-20T04:31:38;100133.00;;;-0.40
16956;BMP180;8594;52.052;8.354;2022-11-20T04:34:07;100137.00;;;0.00
16956;BMP180;8594;52.052;8.354;2022-11-20T04:36:34;100134.00;;;0.20
16956;BMP180;8594;52.052;8.354;2022-11-20T04:39:04;100126.00;;;-0.10
16956;BMP180;8594;52.052;8.354;2022-11-20T04:41:35;100131.00;;;-0.10
16956;BMP180;8594;52.052;8.354;2022-11-20T04:44:05;100136.00;;;0.20
16956;BMP180;8594;52.052;8.354;2022-11-20T04:46:35;100133.00;;;0.00
16956;BMP180;8594;52.052;8.354;2022-11-20T04:49:03;100133.00;;;-0.10
16956;BMP180;8594;52.052;8.354;2022-11-20T04:51:31;100133.00;;;-0.10
16956;BMP180;8594;52.052;8.354;2022-11-20T04:53:58;100133.00;;;-0.40
16956;BMP180;8594;52.052;8.354;2022-11-20T04:56:25;100125.00;;;-0.60
16956;BMP180;8594;52.052;8.354;2022-11-20T04:58:53;100130.00;;;-0.80
16956;BMP180;8594;52.052;8.354;2022-11-20T05:01:23;100133.00;;;-0.60
16956;BMP180;8594;52.052;8.354;2022-11-20T05:03:50;100131.00;;;-0.40
16956;BMP180;8594;52.052;8.354;2022-11-20T05:06:20;100138.00;;;-0.40
16956;BMP180;8594;52.052;8.354;2022-11-20T05:08:47;100134.00;;;-0.30
16956;BMP180;8594;52.052;8.354;2022-11-20T05:11:39;100139.00;;;0.40
16956;BMP180;8594;52.052;8.354;2022-11-20T05:14:52;100139.00;;;0.10
16956;BMP180;8594;52.052;8.354;2022-11-20T05:18:10;100136.00;;;-0.40
16956;BMP180;8594;52.052;8.354;2022-11-20T05:20:43;100142.00;;;-0.50
16956;BMP180;8594;52.052;8.354;2022-11-20T05:23:10;100138.00;;;-0.60
16956;BMP180;8594;52.052;8.354;2022-11-20T05:25:37;100134.00;;;-0.30
16956;BMP180;8594;52.052;8.354;2022-11-20T05:28:04;100133.00;;;0.00
16956;BMP180;8594;52.052;8.354;2022-11-20T05:30:32;100123.00;;;-0.10
16956;BMP180;8594;52.052;8.354;2022-11-20T05:32:59;100119.00;;;-0.10
16956;BMP180;8594;52.052;8.354;2022-11-20T05:35:26;100115.00;;;-0.60
16956;BMP180;8594;52.052;8.354;2022-11-20T05:37:52;100112.00;;;-0.60
16956;BMP180;8594;52.052;8.354;2022-11-20T05:40:19;100112.00;;;-0.60
16956;BMP180;8594;52.052;8.354;2022-11-20T05:42:46;100118.00;;;-0.90
16956;BMP180;8594;52.052;8.354;2022-11-20T05:45:13;100105.00;;;-0.80
16956;BMP180;8594;52.052;8.354;2022-11-20T05:47:41;100103.00;;;-0.80
16956;BMP180;8594;52.052;8.354;2022-11-20T05:50:08;100101.00;;;-0.60
16956;BMP180;8594;52.052;8.354;2022-11-20T05:52:35;100102.00;;;-0.50
16956;BMP180;8594;52.052;8.354;2022-11-20T05:55:03;100107.00;;;-0.40
16956;BMP180;8594;52.052;8.354;2022-11-20T05:57:31;100104.00;;;-0.70
16956;BMP180;8594;52.052;8.354;2022-11-20T05:59:58;100107.00;;;-0.70
16956;BMP180;8594;52.052;8.354;2022-11-20T06:02:25;100110.00;;;-0.80
16956;BMP180;8594;52.052;8.354;2022-11-20T06:04:53;100108.00;;;-0.70
16956;BMP180;8594;52.052;8.354;2022-11-20T06:07:20;100108.00;;;-0.20
16956;BMP180;8594;52.052;8.354;2022-11-20T06:09:47;100114.00;;;0.10
16956;BMP180;8594;52.052;8.354;2022-11-20T06:12:14;100126.00;;;0.00
16956;BMP180;8594;52.052;8.354;2022-11-20T06:14:40;100117.00;;;-0.30
16956;BMP180;8594;52.052;8.354;2022-11-20T06:17:07;100111.00;;;-0.80
16956;BMP180;8594;52.052;8.354;2022-11-20T06:19:34;100120.00;;;-0.90
16956;BMP180;8594;52.052;8.354;2022-11-20T06:22:02;100123.00;;;-0.80
16956;BMP180;8594;52.052;8.354;2022-11-20T06:24:29;100118.00;;;-0.30
16956;BMP180;8594;52.052;8.354;2022-11-20T06:26:56;100125.00;;;-0.30
16956;BMP180;8594;52.052;8.354;2022-11-20T06:29:23;100117.00;;;-0.30
16956;BMP180;8594;52.052;8.354;2022-11-20T06:31:50;100117.00;;;-0.70
16956;BMP180;8594;52.052;8.354;2022-11-20T06:34:17;100121.00;;;-0.70
16956;BMP180;8594;52.052;8.354;2022-11-20T06:36:44;100114.00;;;-1.10
16956;BMP180;8594;52.052;8.354;2022-11-20T06:39:12;100119.00;;;-0.20
16956;BMP180;8594;52.052;8.354;2022-11-20T06:41:39;100115.00;;;-0.20
16956;BMP180;8594;52.052;8.354;2022-11-20T06:44:06;100119.00;;;-0.50
16956;BMP180;8594;52.052;8.354;2022-11-20T06:46:33;100117.00;;;-0.40
16956;BMP180;8594;52.052;8.354;2022-11-20T06:49:00;100114.00;;;-0.60
16956;BMP180;8594;52.052;8.354;2022-11-20T06:51:27;100123.00;;;-0.50
16956;BMP180;8594;52.052;8.354;2022-11-20T06:53:54;100124.00;;;-0.40
16956;BMP180;8594;52.052;8.354;2022-11-20T06:56:22;100129.00;;;-0.40
16956;BMP180;8594;52.052;8.354;2022-11-20T06:58:49;100121.00;;;-0.30
16956;BMP180;8594;52.052;8.354;2022-11-20T07:01:16;100126.00;;;-0.50
16956;BMP180;8594;52.052;8.354;2022-11-20T07:03:43;100124.00;;;-0.60
16956;BMP180;8594;52.052;8.354;2022-11-20T07:06:10;100130.00;;;-0.70
16956;BMP180;8594;52.052;8.354;2022-11-20T07:08:37;100131.00;;;-0.30
16956;BMP180;8594;52.052;8.354;2022-11-20T07:11:07;100131.00;;;-0.30
16956;BMP180;8594;52.052;8.354;2022-11-20T07:13:35;100130.00;;;-0.30
16956;BMP180;8594;52.052;8.354;2022-11-20T07:16:05;100145.00;;;-0.20
16956;BMP180;8594;52.052;8.354;2022-11-20T07:18:33;100149.00;;;-0.40
16956;BMP180;8594;52.052;8.354;2022-11-20T07:21:01;100141.00;;;-0.20
16956;BMP180;8594;52.052;8.354;2022-11-20T07:23:28;100154.00;;;-0.10
16956;BMP180;8594;52.052;8.354;2022-11-20T07:25:55;100146.00;;;-0.30
16956;BMP180;8594;52.052;8.354;2022-11-20T07:28:22;100149.00;;;-0.50
16956;BMP180;8594;52.052;8.354;2022-11-20T07:30:52;100150.00;;;-0.70
16956;BMP180;8594;52.052;8.354;2022-11-20T07:33:20;100158.00;;;-0.70
16956;BMP180;8594;52.052;8.354;2022-11-20T07:35:47;100155.00;;;0.20
16956;BMP180;8594;52.052;8.354;2022-11-20T07:38:13;100161.00;;;0.60
16956;BMP180;8594;52.052;8.354;2022-11-20T07:40:40;100155.00;;;0.40
16956;BMP180;8594;52.052;8.354;2022-11-20T07:43:07;100158.00;;;0.40
16956;BMP180;8594;52.052;8.354;2022-11-20T07:45:34;100166.00;;;0.20
16956;BMP180;8594;52.052;8.354;2022-11-20T07:48:03;100152.00;;;0.30
16956;BMP180;8594;52.052;8.354;2022-11-20T07:50:30;100156.00;;;0.40
16956;BMP180;8594;52.052;8.354;2022-11-20T07:53:03;100155.00;;;0.50
16956;BMP180;8594;52.052;8.354;2022-11-20T07:55:32;100154.00;;;0.50
16956;BMP180;8594;52.052;8.354;2022-11-20T07:57:59;100158.00;;;0.60
16956;BMP180;8594;52.052;8.354;2022-11-20T08:00:26;100158.00;;;0.70
16956;BMP180;8594;52.052;8.354;2022-11-20T08:02:54;100157.00;;;0.00
16956;BMP180;8594;52.052;8.354;2022-11-20T08:05:22;100161.00;;;0.70
16956;BMP180;8594;52.052;8.354;2022-11-20T08:07:49;100157.00;;;0.60
16956;BMP180;8594;52.052;8.354;2022-11-20T08:10:16;100153.00;;;0.90
16956;BMP180;8594;52.052;8.354;2022-11-20T08:12:45;100150.00;;;1.00
16956;BMP180;8594;52.052;8.354;2022-11-20T08:15:29;100138.00;;;0.70
16956;BMP180;8594;52.052;8.354;2022-11-20T08:18:02;100141.00;;;0.90
16956;BMP180;8594;52.052;8.354;2022-11-20T08:20:31;100142.00;;;0.90
16956;BMP180;8594;52.052;8.354;2022-11-20T08:22:59;100134.00;;;0.80
16956;BMP180;8594;52.052;8.354;2022-11-20T08:25:27;100122.00;;;1.10
16956;BMP180;8594;52.052;8.354;2022-11-20T08:27:57;100127.00;;;1.10
16956;BMP180;8594;52.052;8.354;2022-11-20T08:30:24;100127.00;;;1.10
16956;BMP180;8594;52.052;8.354;2022-11-20T08:32:52;100135.00;;;1.20
16956;BMP180;8594;52.052;8.354;2022-11-20T08:35:19;100131.00;;;1.30
16956;BMP180;8594;52.052;8.354;2022-11-20T08:37:48;100127.00;;;1.30
16956;BMP180;8594;52.052;8.354;2022-11-20T08:40:15;100131.00;;;1.60
16956;BMP180;8594;52.052;8.354;2022-11-20T08:42:47;100133.00;;;1.60
16956;BMP180;8594;52.052;8.354;2022-11-20T08:45:15;100133.00;;;1.70
16956;BMP180;8594;52.052;8.354;2022-11-20T08:47:42;100139.00;;;1.90
16956;BMP180;8594;52.052;8.354;2022-11-20T08:50:09;100139.00;;;1.70
16956;BMP180;8594;52.052;8.354;2022-11-20T08:52:37;100133.00;;;2.00
16956;BMP180;8594;52.052;8.354;2022-11-20T08:55:07;100133.00;;;1.90
16956;BMP180;8594;52.052;8.354;2022-11-20T08:57:36;100145.00;;;2.00
16956;BMP180;8594;52.052;8.354;2022-11-20T09:00:06;100141.00;;;1.80
16956;BMP180;8594;52.052;8.354;2022-11-20T09:02:33;100146.00;;;2.60
16956;BMP180;8594;52.052;8.354;2022-11-20T09:05:00;100144.00;;;2.80
16956;BMP180;8594;52.052;8.354;2022-11-20T09:07:29;100144.00;;;2.90
16956;BMP180;8594;52.052;8.354;2022-11-20T09:09:56;100139.00;;;3.00
16956;BMP180;8594;52.052;8.354;2022-11-20T09:12:24;100134.00;;;3.40
16956;BMP180;8594;52.052;8.354;2022-11-20T09:14:51;100144.00;;;2.50
16956;BMP180;8594;52.052;8.354;2022-11-20T09:17:18;100143.00;;;2.70
16956;BMP180;8594;52.052;8.354;2022-11-20T09:19:46;100141.00;;;2.90
16956;BMP180;8594;52.052;8.354;2022-11-20T09:22:13;100139.00;;;3.10
16956;BMP180;8594;52.052;8.354;2022-11-20T09:24:40;100134.00;;;3.10
16956;BMP180;8594;52.052;8.354;2022-11-20T09:27:08;100134.00;;;3.10
16956;BMP180;8594;52.052;8.354;2022-11-20T09:29:36;100134.00;;;3.20
16956;BMP180;8594;52.052;8.354;2022-11-20T09:32:04;100128.00;;;2.90
16956;BMP180;8594;52.052;8.354;2022-11-20T09:34:31;100139.00;;;3.10
16956;BMP180;8594;52.052;8.354;2022-11-20T09:36:58;100138.00;;;3.10
16956;BMP180;8594;52.052;8.354;2022-11-20T09:39:25;100141.00;;;3.20
16956;BMP180;8594;52.052;8.354;2022-11-20T09:42:30;100138.00;;;2.60
16956;BMP180;8594;52.052;8.354;2022-11-20T09:45:22;100132.00;;;3.10
16956;BMP180;8594;52.052;8.354;2022-11-20T09:48:08;100137.00;;;3.00
16956;BMP180;8594;52.052;8.354;2022-11-20T09:50:45;100131.00;;;3.30
16956;BMP180;8594;52.052;8.354;2022-11-20T09:53:26;100131.00;;;3.50
16956;BMP180;8594;52.052;8.354;2022-11-20T09:55:55;100127.00;;;3.40
16956;BMP180;8594;52.052;8.354;2022-11-20T09:58:30;100123.00;;;3.50
16956;BMP180;8594;52.052;8.354;2022-11-20T10:01:10;100118.00;;;3.30
16956;BMP180;8594;52.052;8.354;2022-11-20T10:03:49;100117.00;;;3.60
16956;BMP180;8594;52.052;8.354;2022-11-20T10:06:21;100103.00;;;4.00
16956;BMP180;8594;52.052;8.354;2022-11-20T10:09:00;100110.00;;;3.80
16956;BMP180;8594;52.052;8.354;2022-11-20T10:11:38;100097.00;;;3.80
16956;BMP180;8594;52.052;8.354;2022-11-20T10:14:24;100098.00;;;4.60
16956;BMP180;8594;52.052;8.354;2022-11-20T10:17:08;100090.00;;;4.50
16956;BMP180;8594;52.052;8.354;2022-11-20T10:19:54;100087.00;;;4.60
16956;BMP180;8594;52.052;8.354;2022-11-20T10:22:42;100087.00;;;5.10
16956;BMP180;8594;52.052;8.354;2022-11-20T10:25:15;100080.00;;;5.70
16956;BMP180;8594;52.052;8.354;2022-11-20T10:28:16;100089.00;;;6.00
16956;BMP180;8594;52.052;8.354;2022-11-20T10:30:53;100077.00;;;6.50
16956;BMP180;8594;52.052;8.354;2022-11-20T10:33:27;100076.00;;;6.70
16956;BMP180;8594;52.052;8.354;2022-11-20T10:36:06;100075.00;;;7.30
16956;BMP180;8594;52.052;8.354;2022-11-20T10:38:40;100064.00;;;7.60
16956;BMP180;8594;52.052;8.354;2022-11-20T10:41:16;100065.00;;;7.30
16956;BMP180;8594;52.052;8.354;2022-11-20T10:44:00;100066.00;;;7.70
16956;BMP180;8594;52.052;8.354;2022-11-20T10:46:38;100058.00;;;8.50
16956;BMP180;8594;52.052;8.354;2022-11-20T10:49:14;100058.00;;;7.90
16956;BMP180;8594;52.052;8.354;2022-11-20T10:51:58;100048.00;;;7.30
16956;BMP180;8594;52.052;8.354;2022-11-20T10:54:37;100050.00;;;8.30
16956;BMP180;8594;52.052;8.354;2022-11-20T10:57:20;100052.00;;;8.10
16956;BMP180;8594;52.052;8.354;2022-11-20T11:00:10;100064.00;;;7.60
16956;BMP180;8594;52.052;8.354;2022-11-20T11:02:42;100053.00;;;8.00
16956;BMP180;8594;52.052;8.354;2022-11-20T11:05:32;100045.00;;;8.00
16956;BMP180;8594;52.052;8.354;2022-11-20T11:08:02;100050.00;;;8.30
16956;BMP180;8594;52.052;8.354;2022-11-20T11:10:39;100040.00;;;8.30
16956;BMP180;8594;52.052;8.354;2022-11-20T11:13:21;100034.00;;;8.50
16956;BMP180;8594;52.052;8.354;2022-11-20T11:15:48;100038.00;;;8.70
16956;BMP180;8594;52.052;8.354;2022-11-20T11:18:24;100037.00;;;8.70
16956;BMP180;8594;52.052;8.354;2022-11-20T11:20:54;100038.00;;;9.40
16956;BMP180;8594;52.052;8.354;2022-11-20T11:23:32;100030.00;;;9.20
16956;BMP180;8594;52.052;8.354;2022-11-20T11:26:03;100041.00;;;8.70
16956;BMP180;8594;52.052;8.354;2022-11-20T11:28:31;100030.00;;;9.10
16956;BMP180;8594;52.052;8.354;2022-11-20T11:30:58;100038.00;;;9.10
16956;BMP180;8594;52.052;8.354;2022-11-20T11:33:27;100033.00;;;9.00
16956;BMP180;8594;52.052;8.354;2022-11-20T11:35:59;100031.00;;;9.00
16956;BMP180;8594;52.052;8.354;2022-11-20T11:38:32;100029.00;;;7.90
16956;BMP180;8594;52.052;8.354;2022-11-20T11:41:01;100019.00;;;8.70
16956;BMP180;8594;52.052;8.354;2022-11-20T11:43:32;100016.00;;;8.30
16956;BMP180;8594;52.052;8.354;2022-11-20T11:46:28;100018.00;;;8.80
16956;BMP180;8594;52.052;8.354;2022-11-20T11:48:58;100016.00;;;9.00
16956;BMP180;8594;52.052;8.354;2022-11-20T11:51:36;100014.00;;;8.80
16956;BMP180;8594;52.052;8.354;2022-11-20T11:54:23;100018.00;;;8.90
16956;BMP180;8594;52.052;8.354;2022-11-20T11:56:52;100017.00;;;8.90
16956;BMP180;8594;52.052;8.354;2022-11-20T11:59:26;100013.00;;;8.80
16956;BMP180;8594;52.052;8.354;2022-11-20T12:01:59;100018.00;;;9.00
16956;BMP180;8594;52.052;8.354;2022-11-20T12:04:42;100020.00;;;9.00
16956;BMP180;8594;52.052;8.354;2022-11-20T12:07:20;100008.00;;;8.90
16956;BMP180;8594;52.052;8.354;2022-11-20T12:09:53;100011.00;;;9.00
16956;BMP180;8594;52.052;8.354;2022-11-20T12:12:27;100008.00;;;7.80
16956;BMP180;8594;52.052;8.354;2022-11-20T12:14:57;100000.00;;;8.60
16956;BMP180;8594;52.052;8.354;2022-11-20T12:17:25;100005.00;;;8.90
16956;BMP180;8594;52.052;8.354;2022-11-20T12:19:51;100001.00;;;9.10
16956;BMP180;8594;52.052;8.354;2022-11-20T12:22:31;99990.00;;;9.10
16956;BMP180;8594;52.052;8.354;2022-11-20T12:25:10;99990.00;;;9.00
16956;BMP180;8594;52.052;8.354;2022-11-20T12:28:05;99982.00;;;9.20
16956;BMP180;8594;52.052;8.354;2022-11-20T12:30:49;99988.00;;;9.30
16956;BMP180;8594;52.052;8.354;2022-11-20T12:33:47;99982.00;;;9.00
16956;BMP180;8594;52.052;8.354;2022-11-20T12:36:28;99981.00;;;9.40
16956;BMP180;8594;52.052;8.354;2022-11-20T12:39:19;99976.00;;;8.50
16956;BMP180;8594;52.052;8.354;2022-11-20T12:42:08;99986.00;;;8.60
16956;BMP180;8594;52.052;8.354;2022-11-20T12:48:56;99977.00;;;8.00
16956;BMP180;8594;52.052;8.354;2022-11-20T12:51:55;99968.00;;;7.80
16956;BMP180;8594;52.052;8.354;2022-11-20T12:54:59;99974.00;;;8.00
16956;BMP180;8594;52.052;8.354;2022-11-20T12:57:42;99964.00;;;8.20
16956;BMP180;8594;52.052;8.354;2022-11-20T13:00:17;99968.00;;;7.90
16956;BMP180;8594;52.052;8.354;2022-11-20T13:03:16;99963.00;;;7.60
16956;BMP180;8594;52.052;8.354;2022-11-20T13:05:59;99968.00;;;7.60
16956;BMP180;8594;52.052;8.354;2022-11-20T13:08:33;99960.00;;;7.80
16956;BMP180;8594;52.052;8.354;2022-11-20T13:11:12;99954.00;;;7.20
16956;BMP180;8594;52.052;8.354;2022-11-20T13:14:04;99960.00;;;7.50
16956;BMP180;8594;52.052;8.354;2022-11-20T13:16:45;99952.00;;;7.30
16956;BMP180;8594;52.052;8.354;2022-11-20T13:19:16;99952.00;;;7.10
16956;BMP180;8594;52.052;8.354;2022-11-20T13:21:46;99943.00;;;7.10
16956;BMP180;8594;52.052;8.354;2022-11-20T13:24:26;99946.00;;;7.30
16956;BMP180;8594;52.052;8.354;2022-11-20T13:27:23;99945.00;;;7.20
16956;BMP180;8594;52.052;8.354;2022-11-20T13:30:11;99939.00;;;7.10
16956;BMP180;8594;52.052;8.354;2022-11-20T13:32:49;99934.00;;;6.90
16956;BMP180;8594;52.052;8.354;2022-11-20T13:35:28;99927.00;;;6.70
16956;BMP180;8594;52.052;8.354;2022-11-20T13:38:05;99930.00;;;7.30
16956;BMP180;8594;52.052;8.354;2022-11-20T13:40:35;99918.00;;;6.70
16956;BMP180;8594;52.052;8.354;2022-11-20T13:43:16;99912.00;;;7.00
16956;BMP180;8594;52.052;8.354;2022-11-20T13:45:59;99903.00;;;6.90
16956;BMP180;8594;52.052;8.354;2022-11-20T13:48:30;99898.00;;;6.80
16956;BMP180;8594;52.052;8.354;2022-11-20T13:51:20;99895.00;;;6.80
16956;BMP180;8594;52.052;8.354;2022-11-20T13:54:17;99885.00;;;7.00
16956;BMP180;8594;52.052;8.354;2022-11-20T13:57:04;99879.00;;;6.50
16956;BMP180;8594;52.052;8.354;2022-11-20T13:59:56;99880.00;;;6.50
16956;BMP180;8594;52.052;8.354;2022-11-20T14:02:27;99871.00;;;6.60
16956;BMP180;8594;52.052;8.354;2022-11-20T14:04:58;99866.00;;;7.10
16956;BMP180;8594;52.052;8.354;2022-11-20T14:07:35;99872.00;;;6.80
16956;BMP180;8594;52.052;8.354;2022-11-20T14:10:05;99862.00;;;7.00
16956;BMP180;8594;52.052;8.354;2022-11-20T14:12:33;99862.00;;;6.30
16956;BMP180;8594;52.052;8.354;2022-11-20T14:15:04;99853.00;;;6.50
16956;BMP180;8594;52.052;8.354;2022-11-20T14:17:33;99848.00;;;6.30
16956;BMP180;8594;52.052;8.354;2022-11-20T14:20:05;99856.00;;;6.60
16956;BMP180;8594;52.052;8.354;2022-11-20T14:22:33;99849.00;;;6.80
16956;BMP180;8594;52.052;8.354;2022-11-20T14:25:17;99839.00;;;6.70
16956;BMP180;8594;52.052;8.354;2022-11-20T14:27:52;99836.00;;;6.90
16956;BMP180;8594;52.052;8.354;2022-11-20T14:30:24;99832.00;;;6.70
16956;BMP180;8594;52.052;8.354;2022-11-20T14:32:55;99837.00;;;6.60
16956;BMP180;8594;52.052;8.354;2022-11-20T14:35:26;99840.00;;;6.60
16956;BMP180;8594;52.052;8.354;2022-11-20T14:37:54;99835.00;;;6.50
16956;BMP180;8594;52.052;8.354;2022-11-20T14:40:26;99829.00;;;6.40
16956;BMP180;8594;52.052;8.354;2022-11-20T14:42:54;99836.00;;;6.50
16956;BMP180;8594;52.052;8.354;2022-11-20T14:45:23;99823.00;;;6.10
16956;BMP180;8594;52.052;8.354;2022-11-20T14:47:52;99810.00;;;6.20
16956;BMP180;8594;52.052;8.354;2022-11-20T14:50:25;99823.00;;;6.40
16956;BMP180;8594;52.052;8.354;2022-11-20T14:52:57;99825.00;;;6.50